createdAt,value
2022-10-04T00:04:11.645Z,2.1
2022-10-04T00:09:24.578Z,1.9
2022-10-04T00:13:54.638Z,1.9
2022-10-04T00:19:12.511Z,2.3
2022-10-04T00:23:53.042Z,1.9
2022-10-04T00:29:05.968Z,1.9
2022-10-04T00:30:20.389Z,2
2022-10-04T00:34:45.955Z,2
2022-10-04T00:42:52.045Z,2.2
2022-10-04T00:52:06.883Z,2
2022-10-04T00:53:16.985Z,2
2022-10-04T00:58:02.712Z,1.7
2022-10-04T01:03:15.681Z,1.9
2022-10-04T01:08:28.772Z,2
2022-10-04T01:13:41.629Z,2.5
2022-10-04T01:18:21.949Z,2.5
2022-10-04T01:23:04.849Z,1.9
2022-10-04T01:28:37.588Z,2.4
2022-10-04T01:36:48.633Z,1.9
2022-10-04T01:42:11.346Z,2.3
2022-10-04T01:43:21.731Z,2.3
2022-10-04T01:50:11.416Z,1.8
2022-10-04T01:55:15.368Z,2.2
2022-10-04T01:59:58.576Z,2.1
2022-10-04T02:04:41.684Z,1.8
2022-10-04T02:09:34.569Z,1.9
2022-10-04T02:14:04.587Z,1.9
2022-10-04T02:19:22.400Z,2.2
2022-10-04T02:24:05.296Z,2.1
2022-10-04T02:29:35.880Z,2
2022-10-04T02:33:09.424Z,2
2022-10-04T02:37:52.836Z,2.3
2022-10-04T02:39:02.293Z,2
2022-10-04T02:43:50.136Z,1.9
2022-10-04T02:49:29.048Z,2
2022-10-04T02:55:07.016Z,2.2
2022-10-04T03:00:00.021Z,2.3
2022-10-04T03:05:37.891Z,2.4
2022-10-04T03:13:49.127Z,2.1
2022-10-04T03:20:16.326Z,2.1
2022-10-04T03:27:16.776Z,2.1
2022-10-04T03:35:23.583Z,2.1
2022-10-04T03:40:44.027Z,2.1
2022-10-04T03:41:50.955Z,2
2022-10-04T03:57:42.980Z,1.9
2022-10-04T03:58:52.171Z,1.8
2022-10-04T04:04:06.897Z,1.9
2022-10-04T04:09:32.453Z,1.8
2022-10-04T04:16:06.468Z,2.2
2022-10-04T04:28:24.927Z,1.9
2022-10-04T04:33:39.148Z,2
2022-10-04T04:34:53.768Z,2
2022-10-04T04:39:55.851Z,2.6
2022-10-04T04:42:54.619Z,2.2
2022-10-04T04:43:58.648Z,2
2022-10-04T04:45:02.691Z,2.2
2022-10-04T04:46:28.231Z,2.4
2022-10-04T04:49:20.893Z,1.9
2022-10-04T04:50:24.988Z,1.9
2022-10-04T04:56:10.151Z,2.2
2022-10-04T04:57:16.155Z,2.1
2022-10-04T05:00:13.110Z,2.1
2022-10-04T05:01:17.221Z,2.2
2022-10-04T05:02:26.509Z,2.2
2022-10-04T05:03:33.095Z,2.5
2022-10-04T05:04:37.431Z,2.2
2022-10-04T05:07:31.615Z,2.2
2022-10-04T05:08:40.377Z,2.4
2022-10-04T05:12:31.804Z,2.3
2022-10-04T05:13:35.987Z,2.4
2022-10-04T05:17:58.763Z,2.1
2022-10-04T05:21:25.008Z,2.1
2022-10-04T05:28:27.504Z,2.1
2022-10-04T05:33:06.667Z,2.4
2022-10-04T05:38:23.724Z,2.1
2022-10-04T05:39:37.988Z,2.3
2022-10-04T05:44:21.636Z,2.3
2022-10-04T05:50:08.743Z,2.5
2022-10-04T05:51:23.271Z,2.8
2022-10-04T05:52:30.257Z,2.4
2022-10-04T05:53:39.458Z,2.3
2022-10-04T05:54:45.199Z,2.5
2022-10-04T05:55:50.394Z,2.4
2022-10-04T05:57:04.725Z,2.3
2022-10-04T05:58:17.093Z,2.5
2022-10-04T05:59:31.509Z,2.6
2022-10-04T06:00:43.714Z,2.3
2022-10-04T06:03:39.101Z,2.8
2022-10-04T06:04:48.328Z,2.7
2022-10-04T06:05:57.537Z,3.3
2022-10-04T06:07:08.270Z,2.8
2022-10-04T06:08:15.201Z,2.6
2022-10-04T06:09:29.597Z,2.9
2022-10-04T06:10:38.837Z,2.7
2022-10-04T06:13:26.142Z,2.5
2022-10-04T06:14:38.118Z,2.8
2022-10-04T06:17:22.226Z,2.6
2022-10-04T06:20:18.813Z,2.9
2022-10-04T06:21:33.186Z,2.7
2022-10-04T06:22:47.606Z,2.7
2022-10-04T06:24:01.822Z,2.3
2022-10-04T06:25:06.060Z,2.4
2022-10-04T06:26:10.425Z,2.4
2022-10-04T06:29:12.058Z,2.2
2022-10-04T06:30:19.015Z,2.8
2022-10-04T06:34:52.798Z,2.4
2022-10-04T06:36:07.465Z,2.3
2022-10-04T06:37:18.305Z,2.5
2022-10-04T06:38:30.914Z,2.3
2022-10-04T06:39:40.750Z,2.3
2022-10-04T06:40:45.398Z,2.4
2022-10-04T06:42:03.032Z,2.6
2022-10-04T06:43:18.942Z,2.9
2022-10-04T06:44:33.446Z,2.3
2022-10-04T06:45:47.979Z,2.2
2022-10-04T06:48:20.489Z,2.3
2022-10-04T06:49:34.865Z,2.3
2022-10-04T06:50:44.125Z,2.4
2022-10-04T06:51:58.489Z,2.2
2022-10-04T06:54:58.657Z,2.4
2022-10-04T06:56:10.724Z,2.4
2022-10-04T06:57:19.861Z,2.6
2022-10-04T07:00:21.929Z,2.8
2022-10-04T07:01:26.064Z,2.3
2022-10-04T07:02:35.405Z,2.7
2022-10-04T07:03:51.314Z,2.7
2022-10-04T07:05:09.570Z,2.2
2022-10-04T07:11:23.873Z,2.4
2022-10-04T07:16:29.309Z,2.5
2022-10-04T07:21:47.128Z,1.8
2022-10-04T07:23:01.462Z,2.1
2022-10-04T07:27:30.907Z,2.2
2022-10-04T07:31:55.356Z,2.5
2022-10-04T07:33:04.736Z,2.3
2022-10-04T07:36:28.977Z,2.5
2022-10-04T07:41:48.589Z,2.7
2022-10-04T07:47:03.287Z,2.3
2022-10-04T07:48:17.668Z,2
2022-10-04T07:52:44.545Z,1.9
2022-10-04T07:57:39.861Z,1.8
2022-10-04T08:02:32.733Z,2.1
2022-10-04T08:03:47.066Z,1.9
2022-10-04T08:07:19.590Z,2
2022-10-04T08:12:37.248Z,2
2022-10-04T08:13:51.626Z,2.2
2022-10-04T08:22:30.858Z,2.4
2022-10-04T08:29:45.830Z,2.1
2022-10-04T08:32:45.393Z,1.8
2022-10-04T08:37:32.813Z,1.8
2022-10-04T08:38:47.136Z,1.8
2022-10-04T08:43:21.008Z,1.8
2022-10-04T08:44:30.204Z,1.8
2022-10-04T08:50:17.462Z,1.8
2022-10-04T08:53:52.038Z,1.8
2022-10-04T08:55:06.314Z,1.8
2022-10-04T08:59:58.354Z,1.8
2022-10-04T09:01:12.810Z,1.8
2022-10-04T09:02:27.029Z,1.8
2022-10-04T09:03:36.032Z,1.8
2022-10-04T09:09:20.543Z,1.8
2022-10-04T09:14:39.773Z,1.8
2022-10-04T09:15:54.178Z,1.8
2022-10-04T09:20:46.412Z,1.8
2022-10-04T09:21:55.544Z,1.8
2022-10-04T09:23:07.393Z,1.8
2022-10-04T09:24:21.709Z,1.8
2022-10-04T09:27:53.988Z,1.8
2022-10-04T09:33:18.166Z,1.8
2022-10-04T09:38:40.632Z,1.8
2022-10-04T09:44:02.654Z,1.8
2022-10-04T09:48:46.857Z,1.8
2022-10-04T09:51:38.585Z,1.8
2022-10-04T09:52:47.772Z,1.8
2022-10-04T09:53:56.964Z,1.8
2022-10-04T09:59:41.955Z,49.6
2022-10-04T10:00:52.041Z,10.4
2022-10-04T10:02:06.824Z,6.1
2022-10-04T10:03:21.537Z,4.4
2022-10-04T10:04:30.648Z,2.9
2022-10-04T10:05:39.792Z,2.1
2022-10-04T10:06:54.157Z,1.7
2022-10-04T10:10:21.379Z,2.1
2022-10-04T10:13:28.820Z,1.8
2022-10-04T10:14:45.420Z,1.8
2022-10-04T10:15:54.699Z,2.2
2022-10-04T10:17:16.491Z,2.1
2022-10-04T10:18:30.872Z,2
2022-10-04T10:19:42.980Z,1.7
2022-10-04T10:20:57.407Z,1.9
2022-10-04T10:22:11.913Z,1.9
2022-10-04T10:23:26.247Z,1.7
2022-10-04T10:24:46.713Z,1.7
2022-10-04T10:25:53.532Z,1.7
2022-10-04T10:27:07.960Z,1.7
2022-10-04T10:28:22.308Z,1.7
2022-10-04T10:29:34.468Z,1.5
2022-10-04T10:30:48.937Z,1.4
2022-10-04T10:33:58.563Z,1.6
2022-10-04T10:36:58.207Z,1.5
2022-10-04T10:42:38.115Z,1.8
2022-10-04T10:49:32.416Z,1.9
2022-10-04T10:50:48.820Z,1.5
2022-10-04T10:52:06.165Z,1.5
2022-10-04T10:53:15.340Z,1.5
2022-10-04T10:56:15.665Z,1.5
2022-10-04T10:57:30.076Z,1.4
2022-10-04T10:58:44.395Z,1.6
2022-10-04T10:59:58.923Z,1.8
2022-10-04T11:01:13.428Z,1.8
2022-10-04T11:02:42.508Z,1.8
2022-10-04T11:03:42.076Z,1.9
2022-10-04T11:04:51.324Z,1.4
2022-10-04T11:06:05.663Z,1.6
2022-10-04T11:07:14.800Z,1.7
2022-10-04T11:10:17.159Z,1.7
2022-10-04T11:11:29.283Z,1.6
2022-10-04T11:12:38.590Z,1.7
2022-10-04T11:15:40.923Z,2.2
2022-10-04T11:16:55.328Z,1.9
2022-10-04T11:22:14.892Z,1.4
2022-10-04T11:23:29.235Z,1.5
2022-10-04T11:24:38.417Z,1.4
2022-10-04T11:25:50.663Z,1.4
2022-10-04T11:28:57.916Z,1.3
2022-10-04T11:30:07.243Z,1.4
2022-10-04T11:33:06.635Z,1.4
2022-10-04T11:34:21.071Z,1.3
2022-10-04T11:35:35.419Z,1.4
2022-10-04T11:38:34.736Z,1.9
2022-10-04T11:39:49.065Z,1.9
2022-10-04T11:44:38.540Z,1.8
2022-10-04T11:47:13.910Z,1.8
2022-10-04T11:50:28.472Z,2.6
2022-10-04T11:51:42.943Z,3.1
2022-10-04T11:52:52.104Z,8.3
2022-10-04T11:54:06.784Z,5.9
2022-10-04T11:55:21.145Z,11.8
2022-10-04T11:56:35.475Z,5.6
2022-10-04T11:57:49.831Z,13.4
2022-10-04T11:59:10.021Z,3
2022-10-04T12:00:24.650Z,2.2
2022-10-04T12:01:28.835Z,1.6
2022-10-04T12:03:44.225Z,2.2
2022-10-04T12:04:53.496Z,1.8
2022-10-04T12:06:07.829Z,1.9
2022-10-04T12:07:19.696Z,1.8
2022-10-04T12:08:34.055Z,2.9
2022-10-04T12:09:48.435Z,3.4
2022-10-04T12:11:02.840Z,1.8
2022-10-04T12:12:13.304Z,2
2022-10-04T12:13:32.807Z,1.4
2022-10-04T12:16:04.366Z,2.1
2022-10-04T12:17:11.451Z,1.8
2022-10-04T12:18:24.129Z,1.6
2022-10-04T12:19:38.823Z,1.8
2022-10-04T12:20:59.099Z,1.9
2022-10-04T12:22:08.393Z,1.6
2022-10-04T12:23:17.739Z,1.7
2022-10-04T12:24:29.647Z,1.7
2022-10-04T12:25:39.150Z,1.7
2022-10-04T12:26:53.559Z,1.5
2022-10-04T12:31:41.404Z,1.9
2022-10-04T12:40:57.479Z,1.6
2022-10-04T12:46:39.800Z,1.6
2022-10-04T12:47:49.076Z,1.6
2022-10-04T12:49:01.109Z,1.7
2022-10-04T12:50:18.236Z,1.8
2022-10-04T12:51:30.296Z,1.5
2022-10-04T12:52:45.068Z,1.5
2022-10-04T12:53:57.931Z,1.7
2022-10-04T12:55:06.184Z,2.4
2022-10-04T12:56:10.367Z,5.4
2022-10-04T12:57:29.323Z,2.7
2022-10-04T12:58:43.748Z,2
2022-10-04T12:59:53.016Z,2.5
2022-10-04T13:01:02.308Z,6.9
2022-10-04T13:02:10.232Z,14.8
2022-10-04T13:03:34.812Z,6.6
2022-10-04T13:04:44.212Z,5.3
2022-10-04T13:05:53.648Z,17.4
2022-10-04T13:07:05.708Z,19.5
2022-10-04T13:08:10.288Z,4.6
2022-10-04T13:09:22.284Z,2.9
2022-10-04T13:10:34.265Z,2.1
2022-10-04T13:11:41.188Z,1.8
2022-10-04T13:12:55.639Z,2
2022-10-04T13:14:05.296Z,1.9
2022-10-04T13:15:24.381Z,1.6
2022-10-04T13:17:50.327Z,1.5
2022-10-04T13:19:08.726Z,1.7
2022-10-04T13:20:19.278Z,1.6
2022-10-04T13:21:28.538Z,2.7
2022-10-04T13:22:58.525Z,2.1
2022-10-04T13:24:07.507Z,2.4
2022-10-04T13:25:21.893Z,3.7
2022-10-04T13:26:25.974Z,4.6
2022-10-04T13:32:03.146Z,2.9
2022-10-04T13:40:03.935Z,9.8
2022-10-04T13:44:55.966Z,5.2
2022-10-04T13:46:10.537Z,5
2022-10-04T13:47:25.599Z,2.7
2022-10-04T13:50:39.735Z,3.4
2022-10-04T13:51:47.096Z,3.1
2022-10-04T13:57:14.395Z,5.2
2022-10-04T14:02:29.040Z,2.2
2022-10-04T14:03:43.517Z,2.2
2022-10-04T14:08:33.888Z,2.1
2022-10-04T14:13:29.790Z,2.4
2022-10-04T14:14:44.148Z,2.2
2022-10-04T14:15:58.608Z,2.5
2022-10-04T14:19:03.196Z,2.2
2022-10-04T14:20:12.531Z,2.5
2022-10-04T14:25:37.143Z,2.3
2022-10-04T14:30:30.938Z,1.9
2022-10-04T14:31:45.795Z,1.9
2022-10-04T14:32:58.019Z,9.8
2022-10-04T14:36:01.873Z,9.9
2022-10-04T14:37:16.332Z,3
2022-10-04T14:42:41.901Z,7.1
2022-10-04T14:43:51.231Z,6.3
2022-10-04T14:47:26.602Z,10.6
2022-10-04T14:53:11.792Z,6.7
2022-10-04T14:58:04.303Z,7.7
2022-10-04T15:03:09.093Z,5.7
2022-10-04T15:07:58.575Z,11.3
2022-10-04T15:09:13.147Z,8.3
2022-10-04T15:13:09.137Z,15.1
2022-10-04T15:15:37.452Z,6.9
2022-10-04T15:18:00.848Z,4.2
2022-10-04T15:26:15.916Z,6.9
2022-10-04T15:27:20.117Z,5.2
2022-10-04T15:36:35.272Z,5
2022-10-04T15:40:11.331Z,3.6
2022-10-04T15:41:24.866Z,4.5
2022-10-04T15:46:43.941Z,8
2022-10-04T15:49:29.937Z,7.7
2022-10-04T15:50:45.242Z,7.8
2022-10-04T15:51:59.667Z,11.8
2022-10-04T15:53:19.003Z,14.8
2022-10-04T15:54:30.707Z,16.3
2022-10-04T15:55:45.159Z,15.3
2022-10-04T15:56:50.069Z,15.4
2022-10-04T16:00:19.488Z,10.1
2022-10-04T16:03:01.607Z,8.1
2022-10-04T16:06:34.080Z,5.1
2022-10-04T16:07:41.367Z,4.1
2022-10-04T16:08:56.004Z,3.8
2022-10-04T16:10:11.426Z,3.9
2022-10-04T16:13:14.690Z,4.3
2022-10-04T16:16:18.133Z,5.5
2022-10-04T16:21:05.391Z,6.4
2022-10-04T16:26:26.448Z,6.2
2022-10-04T16:31:19.875Z,6.5
2022-10-04T16:32:22.200Z,7.8
2022-10-04T16:37:53.432Z,12.4
2022-10-04T16:39:06.476Z,13.4
2022-10-04T16:40:15.838Z,13.5
2022-10-04T16:42:53.451Z,13.9
2022-10-04T16:46:18.197Z,12.1
2022-10-04T16:53:25.999Z,10.5
2022-10-04T16:54:40.511Z,10.5
2022-10-04T16:55:55.755Z,10.7
2022-10-04T16:57:10.184Z,11.2
2022-10-04T16:58:19.631Z,11
2022-10-04T17:01:12.579Z,14
2022-10-04T17:02:24.394Z,15.5
2022-10-04T17:03:31.220Z,17
2022-10-04T17:06:01.495Z,17.5
2022-10-04T17:09:34.183Z,16.1
2022-10-04T17:14:57.974Z,14.4
2022-10-04T17:16:12.432Z,14
2022-10-04T17:21:17.530Z,13.9
2022-10-04T17:22:31.745Z,12.9
2022-10-04T17:25:44.259Z,13.9
2022-10-04T17:27:01.975Z,14.5
2022-10-04T17:28:13.160Z,15.8
2022-10-04T17:33:35.671Z,23.3
2022-10-04T17:34:50.089Z,23
2022-10-04T17:40:08.955Z,22.2
2022-10-04T17:41:13.303Z,22.9
2022-10-04T17:46:05.335Z,26.7
2022-10-04T17:51:04.922Z,32.6
2022-10-04T17:52:19.627Z,30.7
2022-10-04T18:01:13.352Z,32
2022-10-04T18:02:25.319Z,34.4
2022-10-04T18:06:58.468Z,31.3
2022-10-04T18:12:11.161Z,30.1
2022-10-04T18:13:25.594Z,29
2022-10-04T18:16:19.887Z,29.1
2022-10-04T18:17:26.689Z,28.5
2022-10-04T18:18:36.034Z,30.5
2022-10-04T18:21:20.816Z,31.1
2022-10-04T18:22:27.645Z,30.4
2022-10-04T18:25:21.781Z,34.9
2022-10-04T18:26:25.980Z,34.5
2022-10-04T18:27:30.198Z,36.9
2022-10-04T18:31:09.397Z,39.9
2022-10-04T18:34:02.366Z,42.8
2022-10-04T18:35:21.282Z,46
2022-10-04T18:36:30.874Z,41.3
2022-10-04T18:41:21.326Z,44.2
2022-10-04T18:42:25.377Z,42.4
2022-10-04T18:43:29.833Z,37.8
2022-10-04T18:48:06.157Z,38.6
2022-10-04T18:49:18.397Z,40.9
2022-10-04T18:50:28.085Z,40.2
2022-10-04T18:51:32.249Z,37.9
2022-10-04T18:52:38.782Z,38.1
2022-10-04T18:53:58.121Z,39.1
2022-10-04T18:55:07.880Z,37.9
2022-10-04T18:56:30.494Z,39.1
2022-10-04T18:57:36.045Z,38.1
2022-10-04T18:58:45.644Z,36.6
2022-10-04T19:00:05.377Z,42.5
2022-10-04T19:03:04.872Z,43.9
2022-10-04T19:04:14.938Z,49.1
2022-10-04T19:05:21.847Z,49.1
2022-10-04T19:08:21.798Z,47.8
2022-10-04T19:09:31.574Z,51.6
2022-10-04T19:10:43.809Z,47.2
2022-10-04T19:15:36.260Z,58
2022-10-04T19:20:33.881Z,41.8
2022-10-04T19:21:41.336Z,42.4
2022-10-04T19:25:13.369Z,35
2022-10-04T19:26:31.920Z,33.2
2022-10-04T19:27:32.253Z,33.8
2022-10-04T19:28:39.846Z,35.4
2022-10-04T19:29:44.164Z,34.1
2022-10-04T19:30:53.501Z,33.4
2022-10-04T19:33:58.670Z,32.5
2022-10-04T19:35:08.810Z,33.6
2022-10-04T19:36:23.537Z,32.2
2022-10-04T19:37:38.007Z,29.5
2022-10-04T19:38:52.272Z,30.6
2022-10-04T19:40:01.591Z,31.1
2022-10-04T19:42:31.808Z,30.8
2022-10-04T19:43:39.029Z,32
2022-10-04T19:44:48.394Z,32
2022-10-04T19:46:02.836Z,33.7
2022-10-04T19:47:15.309Z,33.7
2022-10-04T19:48:24.889Z,35.9
2022-10-04T19:49:29.104Z,37.2
2022-10-04T19:50:43.493Z,38.7
2022-10-04T19:51:50.737Z,36.8
2022-10-04T19:52:54.908Z,41.7
2022-10-04T19:54:09.095Z,44.8
2022-10-04T19:55:11.505Z,47.1
2022-10-04T19:56:24.317Z,45.7
2022-10-04T19:57:33.884Z,40.1
2022-10-04T19:58:38.481Z,41.8
2022-10-04T19:59:42.718Z,40.3
2022-10-04T20:00:47.096Z,40.1
2022-10-04T20:01:51.429Z,41.3
2022-10-04T20:02:56.012Z,40.6
2022-10-04T20:04:00.105Z,43.9
2022-10-04T20:05:16.382Z,67.6
2022-10-04T20:06:20.973Z,64
2022-10-04T20:07:25.560Z,67.7
2022-10-04T20:08:29.764Z,66.4
2022-10-04T20:09:48.224Z,57.5
2022-10-04T20:11:02.737Z,55
2022-10-04T20:12:15.250Z,51.1
2022-10-04T20:13:30.564Z,50
2022-10-04T20:14:35.029Z,48.5
2022-10-04T20:15:39.464Z,45.2
2022-10-04T20:16:44.655Z,40.9
2022-10-04T20:17:52.061Z,40.3
2022-10-04T20:18:59.768Z,36.4
2022-10-04T20:20:04.285Z,34.5
2022-10-04T20:21:13.317Z,33.9
2022-10-04T20:22:18.317Z,31.9
2022-10-04T20:23:29.394Z,32.4
2022-10-04T20:24:36.312Z,31.4
2022-10-04T20:25:40.790Z,33
2022-10-04T20:26:53.536Z,32.9
2022-10-04T20:27:54.927Z,30.7
2022-10-04T20:29:02.748Z,30.4
2022-10-04T20:30:08.381Z,28.5
2022-10-04T20:31:17.101Z,28
2022-10-04T20:32:26.447Z,25.5
2022-10-04T20:33:34.615Z,23.9
2022-10-04T20:34:44.069Z,24
2022-10-04T20:35:48.351Z,23.2
2022-10-04T20:36:57.664Z,24.6
2022-10-04T20:38:27.653Z,24.3
2022-10-04T20:39:06.380Z,25.3
2022-10-04T20:40:10.733Z,24.1
2022-10-04T20:41:22.820Z,25.3
2022-10-04T20:42:30.077Z,25.3
2022-10-04T20:43:39.401Z,25
2022-10-04T20:44:53.949Z,23.1
2022-10-04T20:46:03.525Z,23.7
2022-10-04T20:47:07.832Z,24.8
2022-10-04T20:48:20.126Z,23.4
2022-10-04T20:49:27.166Z,23.7
2022-10-04T20:50:35.768Z,24.4
2022-10-04T20:51:40.993Z,22.6
2022-10-04T20:52:48.172Z,24
2022-10-04T20:53:52.428Z,23.6
2022-10-04T20:54:56.839Z,22.4
2022-10-04T20:56:01.121Z,23
2022-10-04T20:57:10.936Z,22.5
2022-10-04T20:58:15.288Z,22.6
2022-10-04T20:59:22.445Z,21.5
2022-10-04T21:00:29.877Z,21.1
2022-10-04T21:01:34.982Z,19.6
2022-10-04T21:02:45.461Z,20.7
2022-10-04T21:03:51.097Z,22
2022-10-04T21:04:55.413Z,22.1
2022-10-04T21:06:09.898Z,21.2
2022-10-04T21:07:14.520Z,20.5
2022-10-04T21:08:24.958Z,22.3
2022-10-04T21:09:29.330Z,21.7
2022-10-04T21:10:33.501Z,21.3
2022-10-04T21:11:41.661Z,20.6
2022-10-04T21:12:49.275Z,20.7
2022-10-04T21:13:53.635Z,21.2
2022-10-04T21:14:58.065Z,22.3
2022-10-04T21:16:02.713Z,19.2
2022-10-04T21:17:07.623Z,20.8
2022-10-04T21:18:21.948Z,18.9
2022-10-04T21:19:26.277Z,18.7
2022-10-04T21:20:37.633Z,19
2022-10-04T21:21:41.849Z,19.1
2022-10-04T21:22:53.282Z,18.2
2022-10-04T21:23:55.628Z,19.3
2022-10-04T21:24:59.924Z,18.8
2022-10-04T21:26:06.896Z,18.5
2022-10-04T21:27:21.240Z,19.5
2022-10-04T21:28:28.540Z,18.7
2022-10-04T21:29:34.740Z,17.6
2022-10-04T21:30:38.956Z,17.4
2022-10-04T21:31:43.500Z,18.5
2022-10-04T21:32:48.180Z,17.7
2022-10-04T21:33:52.536Z,18.1
2022-10-04T21:34:56.989Z,18
2022-10-04T21:36:01.425Z,18.3
2022-10-04T21:37:05.844Z,18.1
2022-10-04T21:38:10.129Z,18.1
2022-10-04T21:39:14.540Z,18.1
2022-10-04T21:40:19.125Z,18.2
2022-10-04T21:41:23.517Z,18
2022-10-04T21:42:27.789Z,18.1
2022-10-04T21:43:33.416Z,18.9
2022-10-04T21:44:37.897Z,18.3
2022-10-04T21:45:42.490Z,18.8
2022-10-04T21:46:47.657Z,18.2
2022-10-04T21:47:52.265Z,19.2
2022-10-04T21:48:58.713Z,19.5
2022-10-04T21:50:05.872Z,19.7
2022-10-04T21:51:10.288Z,18.5
2022-10-04T21:52:14.745Z,20.6
2022-10-04T21:53:19.193Z,19.8
2022-10-04T21:54:23.432Z,19.7
2022-10-04T21:55:27.628Z,19.5
2022-10-04T21:56:32.041Z,20.7
2022-10-04T21:57:36.280Z,21.4
2022-10-04T21:59:45.696Z,20.9
2022-10-04T22:00:50.913Z,19.5
2022-10-04T22:01:55.350Z,19.2
2022-10-04T22:02:59.576Z,19.2
2022-10-04T22:04:05.540Z,18.5
2022-10-04T22:05:10.489Z,18.1
2022-10-04T22:06:15.165Z,19
2022-10-04T22:07:19.496Z,19.2
2022-10-04T22:08:24.088Z,18.7
2022-10-04T22:09:28.475Z,18.4
2022-10-04T22:10:33.815Z,17.6
2022-10-04T22:11:38.080Z,18.5
2022-10-04T22:12:42.244Z,18.1
2022-10-04T22:13:46.509Z,17.5
2022-10-04T22:14:50.816Z,17.2
2022-10-04T22:15:55.230Z,16.8
2022-10-04T22:21:09.417Z,16.4
2022-10-04T22:22:13.673Z,15.7
2022-10-04T22:23:17.998Z,16.3
2022-10-04T22:24:25.409Z,16.6
2022-10-04T22:25:32.228Z,16.5
2022-10-04T22:26:39.136Z,16.1
2022-10-04T22:27:43.504Z,15
2022-10-04T22:28:47.692Z,15.5
2022-10-04T22:29:52.313Z,14.9
2022-10-04T22:30:56.577Z,16
2022-10-04T22:32:00.942Z,15
2022-10-04T22:33:05.218Z,14.8
2022-10-04T22:34:09.619Z,14.3
2022-10-04T22:35:16.475Z,14
2022-10-04T22:36:20.915Z,14.4
2022-10-04T22:37:27.667Z,12.7
2022-10-04T22:38:31.813Z,12.6
2022-10-04T22:39:36.014Z,12.6
2022-10-04T22:40:40.299Z,12.2
2022-10-04T22:41:44.732Z,11.9
2022-10-04T22:42:49.087Z,12.5
2022-10-04T22:43:53.459Z,11.6
2022-10-04T22:44:58.007Z,11.1
2022-10-04T22:46:02.441Z,10.3
2022-10-04T22:47:10.867Z,11.3
2022-10-04T22:48:15.099Z,11.6
2022-10-04T22:49:19.403Z,11.6
2022-10-04T22:50:29.039Z,11.3
2022-10-04T22:51:33.370Z,12.6
2022-10-04T22:52:37.702Z,11.5
2022-10-04T22:53:42.115Z,11.9
2022-10-04T22:54:46.332Z,12.1
2022-10-04T22:55:50.627Z,12.2
2022-10-04T22:56:54.879Z,12.6
2022-10-04T22:57:59.104Z,13.9
2022-10-04T22:59:03.316Z,11.9
2022-10-04T23:00:13.715Z,12.1
2022-10-04T23:01:17.988Z,11.9
2022-10-04T23:02:22.328Z,11.4
2022-10-04T23:03:29.215Z,12.1
2022-10-04T23:04:33.952Z,12.2
2022-10-04T23:05:38.313Z,12.2
2022-10-04T23:06:45.808Z,11.8
2022-10-04T23:07:54.947Z,11.9
2022-10-04T23:08:59.317Z,12.3
2022-10-04T23:10:03.939Z,12.1
2022-10-04T23:11:08.844Z,11.7
2022-10-04T23:12:13.103Z,12
2022-10-04T23:13:20.193Z,11.7
2022-10-04T23:14:26.472Z,11.8
2022-10-04T23:15:31.000Z,12.3
2022-10-04T23:16:36.302Z,12.7
2022-10-04T23:17:40.808Z,12.6
2022-10-04T23:18:45.139Z,12.6
2022-10-04T23:19:52.315Z,13.1
2022-10-04T23:20:56.575Z,12.2
2022-10-04T23:22:00.827Z,12.1
2022-10-04T23:23:05.487Z,11.9
2022-10-04T23:24:12.643Z,12.3
2022-10-04T23:25:17.187Z,11.9
2022-10-04T23:26:22.468Z,11.6
2022-10-04T23:27:26.920Z,12.2
2022-10-04T23:28:31.367Z,12.2
2022-10-04T23:29:37.523Z,11.6
2022-10-04T23:30:41.848Z,11.1
2022-10-04T23:31:46.629Z,11.6
2022-10-04T23:32:50.788Z,12.4
2022-10-04T23:34:58.664Z,11
2022-10-04T23:36:03.094Z,11
2022-10-04T23:37:12.604Z,12.3
2022-10-04T23:38:17.135Z,12
2022-10-04T23:39:21.719Z,11.6
2022-10-04T23:40:28.880Z,11.4
2022-10-04T23:41:33.272Z,11.7
2022-10-04T23:42:37.731Z,12.5
2022-10-04T23:43:42.299Z,11.2
2022-10-04T23:44:46.670Z,11.4
2022-10-04T23:45:51.316Z,11.2
2022-10-04T23:46:55.683Z,12.4
2022-10-04T23:48:00.156Z,12.2
2022-10-04T23:49:04.487Z,12
2022-10-04T23:50:13.735Z,12.1
2022-10-04T23:51:20.824Z,11.5
2022-10-04T23:52:29.716Z,11.9
2022-10-04T23:53:36.897Z,11.8
2022-10-04T23:54:41.534Z,12.3
2022-10-04T23:55:45.867Z,12.1
2022-10-04T23:56:50.038Z,12
2022-10-04T23:57:54.510Z,10.9
2022-10-04T23:58:58.842Z,11.4
